createdAt,value
2018-09-11T00:00:32.255Z,16.58
2018-09-11T00:03:01.247Z,16.51
2018-09-11T00:05:30.278Z,16.47
2018-09-11T00:07:59.315Z,16.35
2018-09-11T00:10:28.259Z,16.27
2018-09-11T00:12:57.204Z,16.20
2018-09-11T00:15:26.220Z,16.22
2018-09-11T00:17:55.248Z,16.23
2018-09-11T00:20:24.272Z,16.18
2018-09-11T00:22:53.269Z,16.18
2018-09-11T00:25:22.238Z,16.21
2018-09-11T00:27:51.275Z,16.15
2018-09-11T00:30:20.279Z,16.08
2018-09-11T00:32:49.245Z,16.04
2018-09-11T00:35:18.179Z,16.02
2018-09-11T00:37:47.139Z,15.99
2018-09-11T00:40:16.201Z,15.97
2018-09-11T00:42:45.198Z,15.93
2018-09-11T00:45:14.134Z,15.92
2018-09-11T00:47:43.092Z,15.87
2018-09-11T00:50:12.148Z,15.93
2018-09-11T00:52:41.257Z,15.93
2018-09-11T00:55:10.327Z,15.98
2018-09-11T00:57:39.273Z,16.00
2018-09-11T01:00:08.830Z,16.08
2018-09-11T01:02:37.776Z,16.17
2018-09-11T01:05:06.741Z,16.18
2018-09-11T01:07:36.383Z,16.17
2018-09-11T01:10:07.880Z,16.23
2018-09-11T01:12:36.959Z,16.33
2018-09-11T01:15:07.132Z,16.45
2018-09-11T01:17:36.177Z,16.59
2018-09-11T01:20:05.543Z,16.77
2018-09-11T01:22:34.565Z,16.81
2018-09-11T01:25:03.538Z,16.82
2018-09-11T01:27:32.520Z,16.89
2018-09-11T01:30:01.470Z,16.89
2018-09-11T01:32:30.563Z,16.91
2018-09-11T01:34:59.591Z,16.93
2018-09-11T01:37:28.548Z,16.97
2018-09-11T01:39:57.553Z,17.04
2018-09-11T01:42:26.556Z,17.10
2018-09-11T01:44:55.508Z,17.11
2018-09-11T01:47:24.477Z,17.19
2018-09-11T01:49:53.465Z,17.18
2018-09-11T01:52:22.404Z,17.19
2018-09-11T01:54:51.411Z,17.18
2018-09-11T01:57:20.414Z,17.16
2018-09-11T01:59:49.452Z,17.11
2018-09-11T02:02:18.517Z,17.09
2018-09-11T02:04:47.526Z,17.06
2018-09-11T02:07:16.553Z,17.04
2018-09-11T02:09:45.613Z,17.10
2018-09-11T02:12:14.581Z,17.08
2018-09-11T02:14:43.684Z,17.08
2018-09-11T02:17:12.704Z,17.07
2018-09-11T02:19:41.721Z,17.00
2018-09-11T02:22:10.767Z,16.92
2018-09-11T02:24:39.804Z,16.88
2018-09-11T02:27:08.772Z,16.83
2018-09-11T02:29:37.731Z,16.79
2018-09-11T02:32:06.758Z,16.77
2018-09-11T02:34:35.759Z,16.76
2018-09-11T02:37:04.703Z,16.77
2018-09-11T02:39:33.833Z,16.78
2018-09-11T02:42:02.784Z,16.83
2018-09-11T02:44:31.759Z,16.85
2018-09-11T02:47:00.716Z,16.92
2018-09-11T02:49:29.653Z,16.92
2018-09-11T02:51:58.727Z,16.91
2018-09-11T02:54:27.755Z,16.91
2018-09-11T02:56:56.725Z,16.94
2018-09-11T02:59:25.759Z,16.96
2018-09-11T03:01:54.864Z,16.99
2018-09-11T03:04:23.874Z,17.05
2018-09-11T03:06:53.068Z,17.10
2018-09-11T03:09:22.080Z,17.13
2018-09-11T03:11:51.119Z,17.14
2018-09-11T03:14:20.155Z,17.15
2018-09-11T03:16:49.060Z,17.16
2018-09-11T03:19:18.012Z,17.17
2018-09-11T03:21:46.957Z,17.15
2018-09-11T03:24:16.006Z,17.14
2018-09-11T03:26:44.975Z,17.14
2018-09-11T03:29:13.954Z,17.09
2018-09-11T03:31:42.986Z,17.04
2018-09-11T03:34:11.949Z,17.00
2018-09-11T03:36:40.976Z,16.92
2018-09-11T03:39:10.813Z,16.91
2018-09-11T03:41:39.927Z,16.84
2018-09-11T03:44:08.886Z,16.77
2018-09-11T03:46:37.964Z,16.67
2018-09-11T03:49:06.912Z,16.63
2018-09-11T03:51:35.880Z,16.58
2018-09-11T03:54:04.860Z,16.53
2018-09-11T03:56:33.918Z,16.48
2018-09-11T03:59:02.918Z,16.43
2018-09-11T04:01:31.855Z,16.40
2018-09-11T04:04:00.803Z,16.38
2018-09-11T04:06:29.776Z,16.38
2018-09-11T04:08:58.854Z,16.36
2018-09-11T04:11:27.820Z,16.36
2018-09-11T04:13:56.779Z,16.40
2018-09-11T04:16:25.743Z,16.47
2018-09-11T04:18:54.800Z,16.55
2018-09-11T04:21:23.745Z,16.69
2018-09-11T04:23:52.723Z,16.82
2018-09-11T04:26:21.775Z,16.92
2018-09-11T04:28:50.852Z,16.88
2018-09-11T04:31:19.971Z,16.94
2018-09-11T04:33:49.012Z,17.04
2018-09-11T04:36:18.037Z,17.19
2018-09-11T04:38:47.058Z,17.41
2018-09-11T04:41:16.068Z,18.37
2018-09-11T04:43:45.105Z,19.51
2018-09-11T04:46:14.047Z,20.70
2018-09-11T04:48:44.967Z,21.47
2018-09-11T04:51:14.058Z,21.70
2018-09-11T04:53:43.180Z,21.85
2018-09-11T04:56:12.240Z,22.16
2018-09-11T04:58:41.322Z,22.51
2018-09-11T05:01:10.332Z,23.01
2018-09-11T05:03:39.344Z,23.34
2018-09-11T05:06:08.681Z,23.43
2018-09-11T05:08:37.704Z,23.21
2018-09-11T05:11:07.267Z,22.96
2018-09-11T05:13:36.300Z,22.92
2018-09-11T05:16:05.408Z,22.73
2018-09-11T05:18:34.444Z,22.98
2018-09-11T05:21:03.477Z,23.53
2018-09-11T05:23:32.434Z,23.95
2018-09-11T05:26:01.458Z,23.83
2018-09-11T05:28:30.511Z,23.50
2018-09-11T05:30:59.524Z,23.31
2018-09-11T05:33:28.567Z,23.06
2018-09-11T05:35:57.589Z,22.90
2018-09-11T05:38:26.636Z,22.86
2018-09-11T05:40:55.645Z,22.94
2018-09-11T05:43:24.651Z,22.86
2018-09-11T05:45:53.628Z,22.95
2018-09-11T05:48:22.647Z,22.76
2018-09-11T05:50:51.805Z,22.78
2018-09-11T05:53:20.821Z,22.67
2018-09-11T05:55:49.909Z,22.76
2018-09-11T05:58:18.953Z,22.70
2018-09-11T06:00:47.973Z,22.57
2018-09-11T06:03:17.064Z,22.79
2018-09-11T06:05:46.167Z,23.06
2018-09-11T06:08:15.177Z,23.46
2018-09-11T06:10:44.268Z,23.61
2018-09-11T06:13:13.407Z,23.72
2018-09-11T06:15:42.746Z,23.91
2018-09-11T06:18:12.104Z,24.06
2018-09-11T06:20:41.366Z,23.95
2018-09-11T06:23:10.424Z,23.90
2018-09-11T06:25:39.442Z,24.13
2018-09-11T06:28:08.671Z,24.17
2018-09-11T06:30:37.677Z,24.25
2018-09-11T06:33:06.792Z,24.56
2018-09-11T06:35:35.856Z,24.48
2018-09-11T06:38:04.859Z,24.56
2018-09-11T06:40:33.895Z,25.13
2018-09-11T06:43:03.278Z,25.95
2018-09-11T06:45:32.408Z,25.63
2018-09-11T06:48:01.442Z,25.46
2018-09-11T06:50:30.743Z,25.10
2018-09-11T06:53:00.209Z,24.71
2018-09-11T06:55:29.584Z,24.97
2018-09-11T06:57:58.724Z,25.06
2018-09-11T07:00:28.084Z,25.17
2018-09-11T07:02:57.449Z,25.53
2018-09-11T07:05:26.747Z,25.56
2018-09-11T07:07:56.098Z,25.77
2018-09-11T07:10:25.799Z,25.74
2018-09-11T07:12:55.120Z,26.09
2018-09-11T07:15:24.200Z,26.48
2018-09-11T07:17:53.479Z,26.36
2018-09-11T07:20:22.853Z,26.44
2018-09-11T07:22:51.943Z,26.53
2018-09-11T07:25:21.348Z,26.46
2018-09-11T07:27:50.713Z,26.57
2018-09-11T07:30:20.009Z,26.75
2018-09-11T07:32:49.035Z,26.84
2018-09-11T07:35:17.983Z,26.57
2018-09-11T07:37:46.991Z,26.40
2018-09-11T07:40:15.903Z,26.20
2018-09-11T07:42:44.866Z,26.08
2018-09-11T07:45:13.814Z,26.01
2018-09-11T07:47:42.834Z,26.12
2018-09-11T07:50:11.805Z,26.27
2018-09-11T07:52:40.860Z,26.46
2018-09-11T07:55:09.755Z,26.57
2018-09-11T07:57:38.776Z,26.67
2018-09-11T08:00:08.207Z,26.65
2018-09-11T08:02:37.158Z,26.66
2018-09-11T08:05:06.149Z,26.64
2018-09-11T08:07:35.167Z,26.72
2018-09-11T08:10:04.224Z,26.78
2018-09-11T08:12:33.174Z,26.71
2018-09-11T08:15:02.141Z,26.73
2018-09-11T08:17:31.100Z,26.70
2018-09-11T08:20:00.113Z,26.78
2018-09-11T08:22:29.016Z,26.66
2018-09-11T08:24:58.086Z,26.53
2018-09-11T08:27:27.057Z,26.72
2018-09-11T08:29:55.998Z,26.66
2018-09-11T08:32:25.053Z,26.76
2018-09-11T08:34:54.029Z,26.85
2018-09-11T08:37:23.014Z,26.81
2018-09-11T08:39:52.007Z,26.81
2018-09-11T08:42:20.947Z,26.92
2018-09-11T08:44:49.933Z,26.98
2018-09-11T08:47:18.906Z,27.09
2018-09-11T08:49:47.883Z,27.45
2018-09-11T08:52:16.836Z,27.47
2018-09-11T08:54:45.886Z,27.57
2018-09-11T08:57:14.850Z,27.71
2018-09-11T08:59:43.806Z,27.85
2018-09-11T09:02:12.787Z,28.13
2018-09-11T09:04:41.714Z,28.13
2018-09-11T09:07:10.662Z,28.01
2018-09-11T09:09:39.658Z,28.06
2018-09-11T09:12:08.636Z,28.14
2018-09-11T09:14:37.591Z,28.08
2018-09-11T09:17:06.795Z,28.15
2018-09-11T09:19:35.798Z,28.33
2018-09-11T09:22:04.777Z,28.36
2018-09-11T09:24:33.731Z,28.50
2018-09-11T09:27:02.769Z,28.58
2018-09-11T09:29:31.769Z,28.38
2018-09-11T09:32:00.707Z,28.44
2018-09-11T09:34:29.739Z,28.34
2018-09-11T09:36:58.827Z,28.32
2018-09-11T09:39:27.797Z,28.37
2018-09-11T09:41:56.743Z,28.56
2018-09-11T09:44:25.721Z,28.66
2018-09-11T09:46:54.704Z,28.68
2018-09-11T09:49:23.675Z,28.54
2018-09-11T09:51:52.651Z,28.67
2018-09-11T09:54:21.617Z,28.80
2018-09-11T09:56:50.710Z,28.68
2018-09-11T09:59:19.665Z,28.60
2018-09-11T10:01:53.821Z,28.82
2018-09-11T10:04:22.775Z,29.08
2018-09-11T10:06:51.734Z,29.55
2018-09-11T10:09:20.700Z,29.82
2018-09-11T10:11:49.661Z,30.48
2018-09-11T10:14:18.651Z,30.63
2018-09-11T10:16:47.619Z,30.60
2018-09-11T10:19:16.585Z,30.73
2018-09-11T10:21:45.527Z,30.95
2018-09-11T10:24:14.582Z,30.86
2018-09-11T10:26:43.542Z,30.54
2018-09-11T10:29:12.491Z,30.54
2018-09-11T10:31:41.438Z,30.94
2018-09-11T10:34:10.375Z,31.11
2018-09-11T10:36:39.411Z,30.62
2018-09-11T10:39:09.387Z,29.86
2018-09-11T10:41:38.391Z,30.09
2018-09-11T10:44:07.354Z,30.03
2018-09-11T10:46:36.355Z,30.04
2018-09-11T10:49:05.325Z,29.82
2018-09-11T10:51:34.357Z,30.43
2018-09-11T10:54:03.354Z,30.03
2018-09-11T10:56:32.339Z,29.69
2018-09-11T10:59:01.358Z,28.88
2018-09-11T11:01:30.560Z,28.54
2018-09-11T11:03:59.634Z,29.70
2018-09-11T11:06:28.599Z,31.24
2018-09-11T11:08:57.557Z,32.45
2018-09-11T11:11:26.525Z,32.29
2018-09-11T11:13:55.591Z,32.76
2018-09-11T11:16:24.570Z,33.05
2018-09-11T11:18:53.547Z,32.03
2018-09-11T11:21:22.558Z,31.59
2018-09-11T11:23:51.517Z,31.05
2018-09-11T11:26:20.470Z,30.54
2018-09-11T11:28:49.477Z,30.01
2018-09-11T11:31:18.462Z,29.19
2018-09-11T11:33:47.408Z,28.95
2018-09-11T11:36:16.522Z,30.16
2018-09-11T11:38:45.428Z,31.41
2018-09-11T11:41:14.446Z,32.20
2018-09-11T11:43:43.425Z,31.81
2018-09-11T11:46:12.391Z,31.95
2018-09-11T11:48:41.427Z,31.96
2018-09-11T11:51:10.456Z,32.41
2018-09-11T11:53:39.480Z,32.77
2018-09-11T11:56:08.933Z,32.82
2018-09-11T11:58:37.983Z,33.46
2018-09-11T12:01:07.015Z,33.41
2018-09-11T12:03:36.041Z,32.88
2018-09-11T12:06:05.043Z,32.88
2018-09-11T12:08:34.008Z,33.46
2018-09-11T12:11:03.006Z,34.57
2018-09-11T12:13:31.964Z,35.48
2018-09-11T12:16:00.985Z,34.46
2018-09-11T12:18:30.014Z,33.25
2018-09-11T12:20:59.080Z,32.95
2018-09-11T12:23:28.050Z,32.42
2018-09-11T12:25:57.057Z,31.63
2018-09-11T12:28:26.159Z,31.42
2018-09-11T12:30:55.129Z,31.25
2018-09-11T12:33:24.176Z,30.99
2018-09-11T12:35:53.165Z,30.53
2018-09-11T12:38:22.153Z,30.07
2018-09-11T12:40:51.103Z,30.00
2018-09-11T12:43:20.076Z,29.93
2018-09-11T12:45:49.175Z,30.04
2018-09-11T12:48:18.367Z,29.86
2018-09-11T12:50:47.274Z,29.57
2018-09-11T12:53:16.234Z,29.36
2018-09-11T12:55:45.260Z,29.26
2018-09-11T12:58:14.210Z,29.43
2018-09-11T13:00:43.252Z,29.68
2018-09-11T13:03:12.227Z,29.64
2018-09-11T13:05:41.196Z,29.32
2018-09-11T13:08:10.184Z,29.15
2018-09-11T13:10:39.224Z,29.10
2018-09-11T13:13:08.223Z,29.07
2018-09-11T13:15:37.284Z,28.95
2018-09-11T13:18:06.264Z,28.55
2018-09-11T13:20:35.216Z,27.68
2018-09-11T13:23:04.192Z,28.22
2018-09-11T13:25:33.156Z,28.05
2018-09-11T13:28:02.154Z,27.74
2018-09-11T13:30:32.122Z,27.59
2018-09-11T13:33:01.227Z,27.48
2018-09-11T13:35:30.176Z,27.37
2018-09-11T13:37:59.191Z,27.44
2018-09-11T13:40:28.249Z,27.63
2018-09-11T13:42:57.226Z,27.89
2018-09-11T13:45:26.221Z,28.13
2018-09-11T13:47:55.288Z,28.47
2018-09-11T13:50:24.317Z,28.66
2018-09-11T13:52:53.312Z,28.86
2018-09-11T13:55:22.377Z,28.88
2018-09-11T13:57:51.323Z,28.98
2018-09-11T14:00:20.311Z,29.02
2018-09-11T14:02:49.315Z,29.06
2018-09-11T14:05:18.266Z,29.12
2018-09-11T14:07:47.240Z,29.09
2018-09-11T14:10:16.216Z,29.08
2018-09-11T14:12:45.247Z,29.02
2018-09-11T14:15:14.274Z,29.10
2018-09-11T14:17:43.343Z,29.14
2018-09-11T14:20:12.316Z,29.13
2018-09-11T14:22:41.295Z,29.08
2018-09-11T14:25:10.280Z,29.14
2018-09-11T14:27:39.243Z,28.81
2018-09-11T14:30:08.210Z,28.82
2018-09-11T14:32:37.166Z,28.40
2018-09-11T14:35:06.259Z,28.34
2018-09-11T14:37:35.269Z,27.76
2018-09-11T14:40:04.408Z,27.73
2018-09-11T14:42:33.435Z,27.55
2018-09-11T14:45:02.420Z,27.44
2018-09-11T14:47:36.538Z,27.41
2018-09-11T14:50:05.681Z,27.37
2018-09-11T14:52:34.726Z,27.36
2018-09-11T14:55:03.703Z,27.38
2018-09-11T14:57:32.648Z,27.40
2018-09-11T15:00:01.685Z,27.43
2018-09-11T15:02:30.674Z,27.38
2018-09-11T15:04:59.700Z,27.37
2018-09-11T15:07:28.764Z,27.34
2018-09-11T15:09:58.068Z,27.26
2018-09-11T15:12:27.056Z,27.13
2018-09-11T15:14:56.137Z,27.06
2018-09-11T15:17:25.127Z,27.07
2018-09-11T15:19:54.104Z,27.01
2018-09-11T15:22:23.142Z,26.94
2018-09-11T15:24:52.196Z,26.84
2018-09-11T15:27:21.158Z,26.68
2018-09-11T15:29:50.148Z,26.52
2018-09-11T15:32:19.167Z,26.41
2018-09-11T15:34:48.173Z,26.23
2018-09-11T15:37:17.197Z,26.09
2018-09-11T15:39:46.160Z,25.71
2018-09-11T15:42:15.285Z,25.77
2018-09-11T15:44:44.346Z,25.64
2018-09-11T15:47:13.313Z,25.47
2018-09-11T15:49:42.364Z,25.32
2018-09-11T15:52:11.393Z,25.18
2018-09-11T15:54:40.418Z,25.05
2018-09-11T15:57:09.477Z,24.90
2018-09-11T15:59:38.451Z,24.82
2018-09-11T16:02:07.462Z,24.75
2018-09-11T16:04:36.446Z,24.62
2018-09-11T16:07:05.476Z,24.54
2018-09-11T16:09:34.508Z,24.40
2018-09-11T16:12:03.556Z,24.35
2018-09-11T16:14:32.542Z,24.32
2018-09-11T16:17:01.668Z,24.28
2018-09-11T16:19:30.663Z,24.18
2018-09-11T16:21:59.669Z,24.10
2018-09-11T16:24:28.630Z,24.02
2018-09-11T16:26:57.680Z,23.91
2018-09-11T16:29:26.651Z,23.80
2018-09-11T16:31:55.677Z,23.69
2018-09-11T16:34:24.679Z,23.62
2018-09-11T16:36:53.641Z,23.62
2018-09-11T16:39:22.818Z,23.60
2018-09-11T16:41:51.785Z,23.69
2018-09-11T16:44:20.826Z,23.64
2018-09-11T16:46:49.943Z,23.68
2018-09-11T16:49:18.999Z,23.68
2018-09-11T16:51:48.035Z,23.60
2018-09-11T16:54:17.013Z,23.43
2018-09-11T16:56:46.041Z,23.28
2018-09-11T16:59:15.066Z,23.18
2018-09-11T17:01:44.059Z,23.15
2018-09-11T17:04:13.101Z,23.14
2018-09-11T17:06:42.234Z,23.18
2018-09-11T17:09:11.292Z,23.17
2018-09-11T17:11:40.257Z,23.18
2018-09-11T17:14:09.256Z,23.13
2018-09-11T17:16:38.219Z,23.09
2018-09-11T17:19:07.238Z,23.05
2018-09-11T17:21:36.201Z,22.96
2018-09-11T17:24:05.418Z,22.93
2018-09-11T17:26:34.529Z,22.88
2018-09-11T17:29:03.607Z,22.87
2018-09-11T17:31:32.597Z,22.74
2018-09-11T17:34:01.660Z,22.56
2018-09-11T17:36:30.647Z,22.46
2018-09-11T17:38:59.649Z,22.37
2018-09-11T17:41:28.720Z,22.32
2018-09-11T17:43:57.684Z,22.18
2018-09-11T17:46:26.854Z,22.13
2018-09-11T17:48:55.851Z,22.05
2018-09-11T17:51:25.703Z,22.02
2018-09-11T17:53:54.820Z,22.02
2018-09-11T17:56:23.839Z,22.01
2018-09-11T17:58:52.892Z,22.02
2018-09-11T18:01:21.894Z,22.02
2018-09-11T18:03:50.880Z,22.02
2018-09-11T18:06:19.890Z,22.00
2018-09-11T18:08:49.029Z,22.01
2018-09-11T18:11:18.088Z,22.04
2018-09-11T18:13:47.104Z,21.99
2018-09-11T18:16:16.106Z,22.01
2018-09-11T18:18:45.133Z,21.95
2018-09-11T18:21:14.114Z,21.90
2018-09-11T18:23:43.100Z,21.90
2018-09-11T18:26:12.412Z,21.90
2018-09-11T18:28:41.381Z,21.87
2018-09-11T18:31:10.391Z,21.86
2018-09-11T18:33:39.418Z,21.83
2018-09-11T18:36:08.412Z,21.82
2018-09-11T18:38:37.380Z,21.86
2018-09-11T18:41:06.411Z,21.85
2018-09-11T18:43:35.394Z,21.84
2018-09-11T18:46:04.389Z,21.87
2018-09-11T18:48:33.376Z,21.87
2018-09-11T18:51:02.354Z,21.85
2018-09-11T18:53:31.388Z,21.82
2018-09-11T18:56:01.239Z,21.75
2018-09-11T18:58:30.250Z,21.77
2018-09-11T19:00:59.277Z,21.83
2018-09-11T19:03:28.214Z,21.82
2018-09-11T19:05:57.333Z,21.80
2018-09-11T19:08:26.488Z,21.82
2018-09-11T19:10:55.569Z,21.79
2018-09-11T19:13:24.576Z,21.86
2018-09-11T19:15:53.841Z,21.94
2018-09-11T19:18:22.989Z,21.99
2018-09-11T19:20:51.936Z,22.01
2018-09-11T19:23:20.895Z,21.96
2018-09-11T19:25:49.864Z,21.91
2018-09-11T19:28:18.969Z,21.79
2018-09-11T19:30:47.928Z,21.66
2018-09-11T19:33:16.990Z,21.48
2018-09-11T19:35:46.019Z,21.32
2018-09-11T19:38:15.063Z,21.21
2018-09-11T19:40:44.021Z,21.04
2018-09-11T19:43:12.969Z,20.88
2018-09-11T19:45:41.985Z,20.78
2018-09-11T19:48:10.964Z,20.66
2018-09-11T19:50:40.010Z,20.56
2018-09-11T19:53:08.944Z,20.42
2018-09-11T19:55:37.986Z,20.35
2018-09-11T19:58:07.108Z,20.29
2018-09-11T20:00:36.165Z,20.24
2018-09-11T20:03:05.386Z,20.25
2018-09-11T20:05:34.355Z,20.21
2018-09-11T20:08:03.380Z,20.15
2018-09-11T20:10:32.319Z,20.10
2018-09-11T20:13:01.315Z,20.08
2018-09-11T20:15:30.351Z,20.01
2018-09-11T20:17:59.366Z,19.99
2018-09-11T20:20:28.325Z,20.01
2018-09-11T20:22:57.301Z,19.92
2018-09-11T20:25:26.569Z,19.77
2018-09-11T20:27:55.588Z,19.74
2018-09-11T20:30:24.621Z,19.69
2018-09-11T20:32:53.622Z,19.63
2018-09-11T20:35:22.672Z,19.57
2018-09-11T20:37:51.677Z,19.51
2018-09-11T20:40:20.650Z,19.45
2018-09-11T20:42:49.610Z,19.47
2018-09-11T20:45:18.643Z,19.48
2018-09-11T20:47:47.639Z,19.45
2018-09-11T20:50:16.603Z,19.45
2018-09-11T20:52:45.624Z,19.42
2018-09-11T20:55:14.572Z,19.40
2018-09-11T20:57:43.709Z,19.40
2018-09-11T21:00:12.712Z,19.43
2018-09-11T21:02:41.656Z,19.42
2018-09-11T21:05:10.690Z,19.40
2018-09-11T21:07:39.658Z,19.38
2018-09-11T21:10:08.685Z,19.32
2018-09-11T21:12:37.619Z,19.27
2018-09-11T21:15:06.735Z,19.14
2018-09-11T21:17:35.765Z,19.05
2018-09-11T21:20:04.797Z,18.99
2018-09-11T21:22:33.772Z,18.92
2018-09-11T21:25:02.715Z,18.87
2018-09-11T21:27:31.777Z,18.80
2018-09-11T21:30:00.760Z,18.75
2018-09-11T21:32:29.799Z,18.70
2018-09-11T21:34:58.851Z,18.61
2018-09-11T21:37:27.842Z,18.54
2018-09-11T21:39:56.802Z,18.49
2018-09-11T21:42:25.846Z,18.44
2018-09-11T21:44:54.784Z,18.34
2018-09-11T21:47:23.782Z,18.33
2018-09-11T21:49:52.762Z,18.40
2018-09-11T21:52:21.786Z,18.43
2018-09-11T21:54:50.777Z,18.47
2018-09-11T21:57:19.800Z,18.57
2018-09-11T21:59:48.751Z,18.62
2018-09-11T22:02:17.703Z,18.63
2018-09-11T22:04:46.648Z,18.65
2018-09-11T22:07:15.591Z,18.66
2018-09-11T22:09:44.655Z,18.68
2018-09-11T22:12:13.619Z,18.75
2018-09-11T22:14:42.768Z,18.70
2018-09-11T22:17:11.808Z,18.71
2018-09-11T22:19:40.805Z,18.73
2018-09-11T22:22:09.795Z,18.73
2018-09-11T22:24:38.815Z,18.74
2018-09-11T22:27:07.822Z,18.77
2018-09-11T22:29:36.828Z,18.69
2018-09-11T22:32:05.860Z,18.59
2018-09-11T22:34:34.887Z,18.59
2018-09-11T22:37:03.930Z,18.55
2018-09-11T22:39:32.864Z,18.48
2018-09-11T22:42:01.803Z,18.36
2018-09-11T22:44:30.816Z,18.32
2018-09-11T22:46:59.783Z,18.20
2018-09-11T22:49:28.791Z,18.06
2018-09-11T22:51:57.742Z,17.99
2018-09-11T22:54:26.760Z,17.91
2018-09-11T22:56:55.853Z,17.79
2018-09-11T22:59:24.795Z,17.76
2018-09-11T23:01:53.812Z,17.71
2018-09-11T23:04:22.835Z,17.66
2018-09-11T23:06:52.226Z,17.57
2018-09-11T23:09:21.201Z,17.57
2018-09-11T23:11:50.218Z,17.59
2018-09-11T23:14:19.187Z,17.52
2018-09-11T23:16:48.235Z,17.47
2018-09-11T23:19:17.195Z,17.41
2018-09-11T23:21:46.156Z,17.35
2018-09-11T23:24:15.110Z,17.28
2018-09-11T23:26:44.068Z,17.24
2018-09-11T23:29:13.039Z,17.20
2018-09-11T23:31:42.001Z,17.13
2018-09-11T23:34:10.966Z,17.04
2018-09-11T23:36:39.908Z,16.98
2018-09-11T23:39:09.297Z,16.88
2018-09-11T23:41:38.726Z,16.87
2018-09-11T23:44:08.449Z,16.83
2018-09-11T23:46:37.502Z,16.84
2018-09-11T23:49:06.610Z,16.83
2018-09-11T23:51:35.573Z,16.81
2018-09-11T23:54:04.579Z,16.81
2018-09-11T23:56:33.535Z,16.84
2018-09-11T23:59:02.489Z,16.86
